createdAt,value
2023-04-18T10:39:30.729Z,102582.44
2023-04-18T10:41:59.953Z,102589.88
2023-04-18T10:44:28.068Z,102586.94
2023-04-18T10:47:26.422Z,102591.06
2023-04-18T10:50:22.005Z,102581.50
2023-04-18T10:53:03.471Z,102582.34
2023-04-18T10:55:32.983Z,102585.63
2023-04-18T10:58:01.044Z,102586.44
2023-04-18T11:00:29.178Z,102589.25
2023-04-18T11:03:00.540Z,102582.81
2023-04-18T11:05:29.447Z,102592.88
2023-04-18T11:08:07.870Z,102592.88
2023-04-18T11:10:40.900Z,102594.56
2023-04-18T11:13:09.134Z,102588.94
2023-04-18T11:15:40.232Z,102585.00
2023-04-18T11:18:10.339Z,102588.63
2023-04-18T11:20:39.071Z,102585.00
2023-04-18T11:23:12.351Z,102585.00
2023-04-18T11:25:45.023Z,102585.00
2023-04-18T11:28:22.176Z,102573.78
2023-04-18T11:30:55.477Z,102578.56
2023-04-18T11:33:24.987Z,102579.38
2023-04-18T11:35:53.976Z,102571.81
2023-04-18T11:38:24.253Z,102573.78
2023-04-18T11:40:54.032Z,102569.81
2023-04-18T11:43:24.077Z,102575.44
2023-04-18T11:45:53.525Z,102575.44
2023-04-18T11:48:24.682Z,102577.06
2023-04-18T11:50:52.989Z,102571.47
2023-04-18T11:53:53.153Z,102565.88
2023-04-18T11:56:36.097Z,102571.47
2023-04-18T11:59:21.196Z,102571.47
2023-04-18T12:01:50.305Z,102571.47
2023-04-18T12:04:19.098Z,102575.91
2023-04-18T12:06:54.709Z,102573.13
2023-04-18T12:09:24.564Z,102567.50
2023-04-18T12:12:01.215Z,102561.09
2023-04-18T12:14:52.815Z,102565.53
2023-04-18T12:17:21.249Z,102572.28
2023-04-18T12:19:50.379Z,102566.69
2023-04-18T12:22:24.127Z,102567.50
2023-04-18T12:25:07.166Z,102564.72
2023-04-18T12:27:53.838Z,102567.50
2023-04-18T12:30:23.548Z,102570.31
2023-04-18T12:32:52.161Z,102569.16
2023-04-18T12:35:22.504Z,102569.16
2023-04-18T12:37:57.079Z,102563.56
2023-04-18T12:40:31.419Z,102565.22
2023-04-18T12:43:04.289Z,102566.88
2023-04-18T12:45:34.390Z,102566.06
2023-04-18T12:48:05.063Z,102564.41
2023-04-18T12:50:33.103Z,102562.44
2023-04-18T12:53:03.748Z,102561.28
2023-04-18T12:55:31.935Z,102559.63
2023-04-18T12:58:01.516Z,102565.22
2023-04-18T13:00:30.457Z,102560.44
2023-04-18T13:03:01.228Z,102559.63
2023-04-18T13:05:44.768Z,102561.28
2023-04-18T13:08:38.551Z,102558.47
2023-04-18T13:11:14.974Z,102563.25
2023-04-18T13:13:45.605Z,102549.06
2023-04-18T13:16:22.595Z,102558.47
2023-04-18T13:18:57.872Z,102552.88
2023-04-18T13:21:26.867Z,102549.25
2023-04-18T13:23:55.050Z,102554.84
2023-04-18T13:26:29.108Z,102554.03
2023-04-18T13:28:59.901Z,102548.41
2023-04-18T13:31:27.981Z,102546.75
2023-04-18T13:34:00.539Z,102548.41
2023-04-18T13:36:28.609Z,102542.81
2023-04-18T13:39:00.112Z,102549.25
2023-04-18T13:41:31.544Z,102547.25
2023-04-18T13:44:01.106Z,102544.47
2023-04-18T13:46:30.755Z,102542.81
2023-04-18T13:48:59.100Z,102544.47
2023-04-18T13:51:27.805Z,102550.06
2023-04-18T13:53:55.921Z,102545.63
2023-04-18T13:56:26.799Z,102541.66
2023-04-18T13:58:54.766Z,102544.78
2023-04-18T14:01:24.555Z,102536.06
2023-04-18T14:03:54.867Z,102538.84
2023-04-18T14:06:31.921Z,102537.69
2023-04-18T14:09:00.373Z,102533.25
2023-04-18T14:11:28.679Z,102537.69
2023-04-18T14:13:56.789Z,102522.84
2023-04-18T14:16:26.329Z,102532.09
2023-04-18T14:18:54.997Z,102523.69
2023-04-18T14:21:23.136Z,102527.63
2023-04-18T14:23:53.052Z,102527.63
2023-04-18T14:26:21.208Z,102529.28
2023-04-18T14:28:49.415Z,102519.72
2023-04-18T14:31:18.461Z,102522.84
2023-04-18T14:33:53.484Z,102522.03
2023-04-18T14:36:23.312Z,102520.06
2023-04-18T14:38:58.028Z,102515.28
2023-04-18T14:41:29.376Z,102514.78
2023-04-18T14:43:57.867Z,102510.81
2023-04-18T14:46:31.947Z,102506.03
2023-04-18T14:49:02.911Z,102515.28
2023-04-18T14:51:31.393Z,102506.88
2023-04-18T14:53:59.942Z,102506.88
2023-04-18T14:56:35.628Z,102508.50
2023-04-18T14:59:04.145Z,102507.69
2023-04-18T15:01:34.685Z,102502.09
2023-04-18T15:04:06.487Z,102494.00
2023-04-18T15:06:44.379Z,102499.63
2023-04-18T15:09:14.721Z,102496.81
2023-04-18T15:11:43.023Z,102491.22
2023-04-18T15:17:33.849Z,102489.56
2023-04-18T15:21:26.915Z,102488.41
2023-04-18T15:24:27.101Z,102485.25
2023-04-18T15:27:03.574Z,102491.69
2023-04-18T15:29:56.511Z,102486.09
2023-04-18T15:32:57.637Z,102486.91
2023-04-18T15:35:47.901Z,102489.41
2023-04-18T15:38:17.921Z,102491.34
2023-04-18T15:41:01.599Z,102490.53
2023-04-18T15:43:31.936Z,102489.41
2023-04-18T15:46:33.202Z,102491.06
2023-04-18T15:49:15.474Z,102495.00
2023-04-18T15:52:09.947Z,102495.00
2023-04-18T15:54:50.339Z,102490.22
2023-04-18T15:57:29.646Z,102491.06
2023-04-18T15:59:59.785Z,102492.69
2023-04-18T16:02:28.198Z,102491.06
2023-04-18T16:04:58.031Z,102493.03
2023-04-18T16:07:28.136Z,102491.06
2023-04-18T16:09:56.715Z,102487.72
2023-04-18T16:12:26.871Z,102496.66
2023-04-18T16:15:24.612Z,102495.00
2023-04-18T16:17:57.554Z,102489.41
2023-04-18T16:20:27.430Z,102492.22
2023-04-18T16:23:03.729Z,102489.41
2023-04-18T16:25:32.204Z,102497.81
2023-04-18T16:28:00.567Z,102499.47
2023-04-18T16:30:28.913Z,102500.63
2023-04-18T16:32:57.551Z,102495.84
2023-04-18T16:35:28.115Z,102487.72
2023-04-18T16:38:03.983Z,102489.06
2023-04-18T16:40:32.213Z,102484.28
2023-04-18T16:43:42.390Z,102487.09
2023-04-18T17:01:45.897Z,102496.66
2023-04-18T17:04:14.267Z,102501.09
2023-04-18T17:06:45.498Z,102498.31
2023-04-18T17:09:14.829Z,102492.69
2023-04-18T17:11:43.272Z,102503.09
2023-04-18T17:14:16.878Z,102498.31
2023-04-18T17:16:46.616Z,102499.13
2023-04-18T17:19:14.861Z,102498.31
2023-04-18T17:21:44.133Z,102492.69
2023-04-18T17:24:31.599Z,102503.91
2023-04-18T17:27:18.515Z,102505.88
2023-04-18T17:30:40.299Z,102503.91
2023-04-18T17:33:44.750Z,102502.25
2023-04-18T17:36:21.545Z,102509.50
2023-04-18T17:38:52.571Z,102507.88
2023-04-18T17:41:23.477Z,102513.47
2023-04-18T17:44:02.539Z,102516.28
2023-04-18T17:46:39.800Z,102519.09
2023-04-18T17:49:08.811Z,102513.47
2023-04-18T17:52:31.282Z,102513.47
2023-04-18T17:54:53.438Z,102523.53
2023-04-18T18:00:44.925Z,102530.28
2023-04-18T18:07:53.735Z,102520.72
2023-04-18T18:33:08.708Z,102554.34
2023-04-18T18:35:46.996Z,102552.72
2023-04-18T18:38:26.714Z,102559.13
2023-04-18T18:40:56.609Z,102558.31
2023-04-18T18:43:30.348Z,102563.94
2023-04-18T18:46:10.004Z,102563.09
2023-04-18T18:48:48.586Z,102563.94
2023-04-18T18:51:17.382Z,102566.72
2023-04-18T18:53:45.766Z,102576.28
2023-04-18T18:56:16.004Z,102575.13
2023-04-18T18:58:47.066Z,102569.53
2023-04-18T19:01:26.651Z,102567.88
2023-04-18T19:04:30.312Z,102566.72
2023-04-18T19:07:30.335Z,102574.31
2023-04-18T19:10:36.401Z,102579.09
2023-04-18T19:13:55.212Z,102586.34
2023-04-18T19:19:55.303Z,102593.94
2023-04-18T19:22:42.448Z,102577.41
2023-04-18T19:28:19.545Z,102584.69
2023-04-18T19:31:38.249Z,102578.25
2023-04-18T19:37:40.657Z,102577.41
2023-04-18T19:40:15.388Z,102583.03
2023-04-18T19:42:50.473Z,102589.44
2023-04-18T19:45:31.892Z,102581.03
2023-04-18T19:48:22.328Z,102588.63
2023-04-18T19:51:23.123Z,102583.03
2023-04-18T19:54:12.238Z,102588.63
2023-04-18T19:56:59.983Z,102583.84
2023-04-18T19:59:36.080Z,102584.19
2023-04-18T20:02:13.160Z,102583.84
2023-04-18T20:08:25.998Z,102591.44
2023-04-18T20:11:04.841Z,102591.75
2023-04-18T20:13:51.757Z,102596.22
2023-04-18T20:22:39.786Z,102598.19
2023-04-18T20:25:15.011Z,102597.38
2023-04-18T20:27:46.600Z,102594.91
2023-04-18T20:30:25.649Z,102596.53
2023-04-18T20:32:58.500Z,102594.91
2023-04-18T20:35:31.804Z,102597.03
2023-04-18T20:38:30.009Z,102588.63
2023-04-18T20:41:02.545Z,102588.63
2023-04-18T20:43:52.979Z,102590.31
2023-04-18T20:46:31.814Z,102588.63
2023-04-18T20:49:37.486Z,102587.81
2023-04-18T20:52:10.719Z,102588.63
2023-04-18T20:54:49.368Z,102586.97
2023-04-18T20:57:17.673Z,102590.94
2023-04-18T20:59:46.104Z,102586.16
2023-04-18T21:02:29.429Z,102583.34
2023-04-18T21:05:04.124Z,102586.16
2023-04-18T21:07:45.746Z,102589.78
2023-04-18T21:10:20.850Z,102590.94
2023-04-18T21:12:56.763Z,102585.34
2023-04-18T21:15:42.492Z,102597.38
2023-04-18T21:18:16.281Z,102598.19
2023-04-18T21:20:48.277Z,102600.50
2023-04-18T21:23:24.489Z,102590.75
